Time;durP1;ratioP1;P1;durP2;ratioP2;P2;SDS_P1;SDS_P2;PMS_P1;PMS_P2;Temp;Humidity;BMP_temperature;BMP_pressure;BME280_temperature;BME280_humidity;BME280_pressure;Samples;Min_cycle;Max_cycle;Signal;HPM_P1;HPM_P2
2022/03/29 00:08:23;;;;;;;14.30;12.50;;;;;;;7.03;53.73;98899.86;430850;1271;141433;-49
2022/03/29 00:18:28;;;;;;;9.40;7.90;;;;;;;6.78;54.03;98896.64;445503;1269;141777;-55
2022/03/29 00:28:34;;;;;;;7.20;5.50;;;;;;;6.51;54.45;98896.29;446852;1270;141510;-51
2022/03/29 00:38:40;;;;;;;10.90;6.60;;;;;;;6.31;54.98;98878.51;439822;1269;142315;-55
2022/03/29 00:48:46;;;;;;;12.40;9.70;;;;;;;6.34;55.53;98873.30;441276;1270;142247;-53
2022/03/29 00:58:52;;;;;;;11.90;7.80;;;;;;;6.33;55.67;98860.11;444596;1269;141816;-54
2022/03/29 01:08:58;;;;;;;11.70;7.20;;;;;;;6.36;55.85;98849.52;447752;1269;141051;-54
2022/03/29 01:19:07;;;;;;;11.90;7.10;;;;;;;6.28;56.08;98841.48;445191;1269;141921;-54
2022/03/29 01:29:13;;;;;;;10.70;7.40;;;;;;;6.12;56.62;98837.02;447760;1269;141253;-54
2022/03/29 01:39:20;;;;;;;9.80;7.50;;;;;;;6.02;57.01;98827.65;447686;1269;142880;-54
2022/03/29 01:49:26;;;;;;;8.80;6.80;;;;;;;5.88;57.57;98817.63;447182;1270;207056;-56
2022/03/29 02:00:30;;;;;;;9.50;7.10;;;;;;;6.01;58.16;98823.51;447765;1269;140896;-57
2022/03/29 02:09:57;;;;;;;10.00;7.50;;;;;;;6.21;58.28;98807.46;446941;1269;141881;-54
2022/03/29 02:20:06;;;;;;;11.10;6.80;;;;;;;6.18;58.07;98790.07;442852;1270;142892;-53
2022/03/29 02:30:14;;;;;;;10.30;6.60;;;;;;;6.04;58.15;98793.34;447526;1270;141090;-53
2022/03/29 02:40:20;;;;;;;7.50;6.30;;;;;;;5.67;58.63;98792.09;443345;1269;141274;-53
2022/03/29 02:50:26;;;;;;;13.80;8.10;;;;;;;5.22;59.28;98788.30;430801;1271;143175;-57
2022/03/29 03:00:32;;;;;;;11.60;7.30;;;;;;;4.86;60.02;98788.31;441858;1270;141788;-49
2022/03/29 03:10:38;;;;;;;10.80;7.80;;;;;;;4.62;60.24;98779.52;435711;1270;142696;-56
2022/03/29 03:20:44;;;;;;;13.50;7.50;;;;;;;4.63;60.99;98784.48;446604;1269;142858;-54
2022/03/29 03:30:51;;;;;;;9.50;7.60;;;;;;;4.82;60.86;98785.05;440812;1269;145602;-56
2022/03/29 03:40:57;;;;;;;12.30;6.90;;;;;;;4.78;61.50;98790.30;447540;1270;142274;-56
2022/03/29 03:51:03;;;;;;;11.60;8.20;;;;;;;4.64;61.71;98799.16;435700;1270;141428;-51
2022/03/29 04:01:11;;;;;;;21.40;9.60;;;;;;;4.66;62.20;98796.98;442021;1270;142724;-55
2022/03/29 04:11:18;;;;;;;12.60;8.10;;;;;;;4.50;62.56;98805.57;447190;1270;142417;-54
2022/03/29 04:21:23;;;;;;;13.30;7.40;;;;;;;4.26;62.89;98796.77;435223;1269;186135;-55
2022/03/29 04:31:29;;;;;;;18.40;8.20;;;;;;;4.09;63.07;98777.02;447200;1270;142251;-53
2022/03/29 04:41:35;;;;;;;10.50;7.90;;;;;;;3.97;63.10;98767.20;447495;1269;142552;-56
2022/03/29 04:52:01;;;;;;;13.90;8.90;;;;;;;4.10;63.29;98762.73;446568;1270;145596;-57
2022/03/29 05:02:07;;;;;;;12.70;8.70;;;;;;;4.42;63.12;98762.87;447534;1270;141821;-55
2022/03/29 05:12:13;;;;;;;19.50;11.70;;;;;;;5.03;62.69;98776.30;447511;1269;143423;-54
2022/03/29 05:22:19;;;;;;;16.60;10.10;;;;;;;5.62;62.23;98784.70;446778;1269;142368;-55
2022/03/29 05:32:25;;;;;;;16.20;10.00;;;;;;;5.67;62.25;98788.27;447578;1270;143730;-55
2022/03/29 05:42:31;;;;;;;13.20;9.90;;;;;;;9.37;60.38;98789.92;446807;1269;143214;-56
2022/03/29 05:52:37;;;;;;;16.80;11.30;;;;;;;14.34;53.55;98778.47;442804;1270;142790;-56
2022/03/29 06:02:42;;;;;;;11.40;8.30;;;;;;;14.89;47.66;98776.09;447683;1269;142141;-55
2022/03/29 06:12:49;;;;;;;12.80;10.30;;;;;;;12.34;49.11;98793.02;444584;1269;141753;-52
2022/03/29 06:22:54;;;;;;;15.90;8.80;;;;;;;14.49;46.92;98792.73;443447;1269;140889;-55
2022/03/29 06:33:00;;;;;;;11.80;8.60;;;;;;;12.84;46.70;98804.67;447612;1268;142911;-55
2022/03/29 06:43:30;;;;;;;11.80;9.20;;;;;;;10.58;49.00;98803.23;446603;1270;196529;-56
2022/03/29 06:53:35;;;;;;;17.80;11.40;;;;;;;8.97;51.64;98806.68;447714;1269;141715;-56
2022/03/29 07:03:41;;;;;;;16.20;12.30;;;;;;;7.57;54.35;98821.84;446813;1270;141559;-59
2022/03/29 07:13:47;;;;;;;15.20;12.20;;;;;;;7.04;56.73;98823.58;447617;1267;143976;-58
2022/03/29 07:23:54;;;;;;;16.50;13.90;;;;;;;7.10;57.50;98817.30;447542;1270;142124;-58
2022/03/29 07:34:00;;;;;;;22.20;15.90;;;;;;;6.91;58.20;98822.60;445835;1269;142864;-59
2022/03/29 07:44:07;;;;;;;22.50;17.70;;;;;;;6.57;58.76;98827.06;447812;1268;145700;-61
2022/03/29 07:54:13;;;;;;;24.40;17.10;;;;;;;6.27;60.36;98831.65;447589;1269;143573;-59
2022/03/29 08:04:19;;;;;;;24.40;16.90;;;;;;;6.13;61.10;98828.27;446998;1269;142884;-62
2022/03/29 08:14:25;;;;;;;25.40;16.70;;;;;;;6.21;61.06;98828.67;440086;1270;141858;-60
2022/03/29 08:24:31;;;;;;;29.20;21.00;;;;;;;6.17;61.32;98831.50;440662;1268;144157;-62
2022/03/29 08:34:37;;;;;;;24.50;20.70;;;;;;;6.15;61.84;98834.90;435222;1270;141380;-64
2022/03/29 08:44:43;;;;;;;27.60;22.70;;;;;;;6.19;62.17;98841.48;444904;1269;141680;-68
2022/03/29 08:54:50;;;;;;;28.60;22.70;;;;;;;6.37;61.93;98839.71;446934;1269;142854;-62
2022/03/29 09:05:13;;;;;;;29.20;22.50;;;;;;;6.31;62.09;98841.10;442811;1269;141956;-66
2022/03/29 09:15:19;;;;;;;24.40;18.60;;;;;;;6.41;61.92;98834.44;442666;1269;142800;-62
2022/03/29 09:25:37;;;;;;;24.00;19.50;;;;;;;6.56;61.60;98826.81;447653;1269;142272;-61
2022/03/29 09:35:58;;;;;;;29.90;21.50;;;;;;;6.70;61.53;98820.42;445868;1268;143038;-64
2022/03/29 09:46:05;;;;;;;29.90;21.80;;;;;;;6.73;61.47;98815.55;447051;1269;144909;-65
2022/03/29 09:56:13;;;;;;;34.30;22.60;;;;;;;7.06;61.16;98809.36;444182;1269;141771;-59
2022/03/29 10:06:39;;;;;;;29.80;22.80;;;;;;;7.00;61.27;98812.30;446972;1269;142160;-59
2022/03/29 10:16:46;;;;;;;29.60;21.70;;;;;;;6.89;61.54;98807.27;440764;1269;143324;-59
2022/03/29 10:26:56;;;;;;;31.80;20.10;;;;;;;7.48;61.13;98799.94;445411;1269;141949;-58
2022/03/29 10:37:08;;;;;;;27.10;20.70;;;;;;;8.05;59.77;98787.71;430518;1269;144463;-58
2022/03/29 10:47:28;;;;;;;30.20;18.00;;;;;;;9.39;57.46;98770.92;447516;1269;143726;-58
2022/03/29 10:57:36;;;;;;;25.50;16.00;;;;;;;10.74;55.12;98755.17;447052;1269;141996;-59
2022/03/29 11:08:11;;;;;;;16.70;14.40;;;;;;;10.68;53.21;98747.38;447707;1270;141425;-58
2022/03/29 11:18:43;;;;;;;19.50;13.40;;;;;;;9.54;52.96;98746.80;447533;1269;141635;-59
2022/03/29 11:28:51;;;;;;;16.00;12.90;;;;;;;8.91;53.61;98746.05;447625;1270;143056;-57
2022/03/29 11:38:55;;;;;;;;;;;;;;;8.41;54.09;98744.20;447753;1269;141873;-57
2022/03/29 11:49:04;;;;;;;21.50;17.60;;;;;;;8.29;54.99;98726.52;440696;1269;128202;-58
2022/03/29 11:59:16;;;;;;;28.50;18.80;;;;;;;8.28;55.18;98719.24;437294;1269;193858;-59
2022/03/29 12:09:26;;;;;;;27.10;17.90;;;;;;;8.10;55.76;98709.86;446942;1269;162657;-57
2022/03/29 12:19:34;;;;;;;25.00;17.70;;;;;;;7.83;56.47;98707.14;440475;1270;141708;-56
2022/03/29 12:29:47;;;;;;;25.60;18.70;;;;;;;8.28;56.02;98701.50;444355;1269;141782;-58
2022/03/29 12:39:56;;;;;;;26.30;18.70;;;;;;;7.96;56.28;98695.64;435830;1270;141411;-58
2022/03/29 12:50:04;;;;;;;27.60;18.90;;;;;;;7.79;56.70;98688.52;443985;1269;142041;-58
2022/03/29 13:00:14;;;;;;;25.00;18.20;;;;;;;7.67;56.91;98681.68;443138;1269;141487;-57
2022/03/29 13:10:25;;;;;;;24.90;18.80;;;;;;;7.49;57.09;98677.48;447731;1269;192780;-58
2022/03/29 13:20:35;;;;;;;23.30;15.50;;;;;;;7.06;57.79;98675.54;445649;1270;141821;-58
2022/03/29 13:30:41;;;;;;;26.50;18.30;;;;;;;6.94;58.34;98669.50;446916;1269;145183;-58
2022/03/29 13:40:47;;;;;;;26.70;18.60;;;;;;;6.92;58.55;98658.32;447574;1269;141756;-57
2022/03/29 13:50:53;;;;;;;24.50;18.10;;;;;;;7.02;58.68;98645.02;443093;1270;142723;-58
2022/03/29 14:00:59;;;;;;;25.00;17.80;;;;;;;6.94;58.72;98636.80;446929;1269;142630;-61
2022/03/29 14:11:06;;;;;;;24.70;17.80;;;;;;;6.87;58.88;98626.30;447775;1269;140767;-59
2022/03/29 14:21:12;;;;;;;23.70;16.30;;;;;;;6.91;58.88;98619.23;447776;1269;142692;-59
2022/03/29 14:31:18;;;;;;;21.70;15.50;;;;;;;7.11;58.57;98613.11;446850;1270;142841;-59
2022/03/29 14:41:24;;;;;;;21.80;14.40;;;;;;;7.09;58.19;98609.20;435169;1269;141868;-60
2022/03/29 14:51:30;;;;;;;18.70;15.10;;;;;;;7.07;58.05;98601.33;446931;1269;141691;-58
2022/03/29 15:01:36;;;;;;;27.10;16.10;;;;;;;7.04;58.06;98594.39;447899;1270;142225;-59
2022/03/29 15:11:42;;;;;;;18.90;14.60;;;;;;;6.98;58.08;98581.02;447731;1269;141742;-59
2022/03/29 15:21:48;;;;;;;23.00;16.80;;;;;;;6.80;58.55;98568.41;446634;1270;142372;-60
2022/03/29 15:31:54;;;;;;;24.60;18.40;;;;;;;6.50;59.19;98570.36;447808;1269;141861;-59
2022/03/29 15:42:01;;;;;;;24.10;16.50;;;;;;;6.24;59.67;98570.56;447781;1269;141712;-60
2022/03/29 15:52:08;;;;;;;21.90;15.80;;;;;;;6.13;59.94;98568.65;446841;1270;143514;-58
2022/03/29 16:02:14;;;;;;;20.90;14.00;;;;;;;6.00;60.39;98566.43;447686;1269;142273;-59
2022/03/29 16:12:20;;;;;;;23.20;14.30;;;;;;;5.94;60.39;98567.86;446912;1269;141614;-58
2022/03/29 16:22:26;;;;;;;20.90;14.80;;;;;;;5.89;60.39;98559.47;432038;1270;211341;-58
2022/03/29 16:32:33;;;;;;;20.20;14.30;;;;;;;5.83;60.85;98556.73;430689;1270;143478;-60
2022/03/29 16:42:39;;;;;;;20.20;13.60;;;;;;;5.68;60.95;98554.27;440823;1270;142192;-59
2022/03/29 16:52:45;;;;;;;18.70;14.40;;;;;;;5.59;61.73;98555.16;447684;1269;141748;-59
2022/03/29 17:02:51;;;;;;;19.50;15.70;;;;;;;5.55;62.16;98547.81;447551;1270;142852;-62
2022/03/29 17:12:57;;;;;;;26.60;18.40;;;;;;;5.44;62.66;98546.14;446371;1269;142533;-58
2022/03/29 17:23:03;;;;;;;23.90;17.80;;;;;;;5.24;62.82;98542.64;434977;1270;140859;-63
2022/03/29 17:33:10;;;;;;;25.30;18.20;;;;;;;5.12;63.43;98537.48;447550;1269;142376;-64
2022/03/29 17:43:18;;;;;;;34.00;22.00;;;;;;;5.07;63.83;98538.62;446701;1270;142297;-68
2022/03/29 17:53:24;;;;;;;32.00;22.00;;;;;;;5.01;64.08;98543.79;447348;1270;141793;-62
2022/03/29 18:03:30;;;;;;;32.40;20.60;;;;;;;4.95;64.53;98542.58;438266;1270;141781;-62
2022/03/29 18:13:36;;;;;;;30.20;21.40;;;;;;;4.85;64.96;98536.39;447621;1269;143200;-62
2022/03/29 18:23:44;;;;;;;31.60;19.80;;;;;;;4.78;65.33;98530.20;430682;1270;141812;-63
2022/03/29 18:33:50;;;;;;;26.50;19.10;;;;;;;4.55;65.81;98532.88;446911;1269;145445;-63
2022/03/29 18:43:56;;;;;;;28.40;20.40;;;;;;;4.08;66.37;98537.69;447477;1270;141947;-60
2022/03/29 18:54:03;;;;;;;28.30;19.60;;;;;;;3.63;67.20;98538.31;447653;1269;142119;-68
2022/03/29 19:04:09;;;;;;;38.00;26.10;;;;;;;3.25;67.86;98542.14;446750;1269;142758;-68
2022/03/29 19:14:16;;;;;;;37.20;24.40;;;;;;;2.90;68.28;98541.63;447463;1268;142327;-68
2022/03/29 19:24:22;;;;;;;42.70;27.30;;;;;;;2.59;68.82;98538.65;446740;1270;142799;-67
2022/03/29 19:34:28;;;;;;;42.90;31.10;;;;;;;2.30;69.07;98536.38;447361;1270;143261;-68
2022/03/29 19:44:37;;;;;;;40.80;27.70;;;;;;;2.06;69.66;98531.59;447449;1270;144167;-68
2022/03/29 19:54:44;;;;;;;42.60;27.10;;;;;;;1.81;70.06;98533.39;443066;1270;143569;-67
2022/03/29 20:04:52;;;;;;;38.00;27.70;;;;;;;1.61;70.18;98528.77;447602;1270;142788;-68
2022/03/29 20:14:58;;;;;;;49.30;32.60;;;;;;;1.40;70.50;98524.19;438109;1270;142448;-68
2022/03/29 20:25:05;;;;;;;54.80;35.20;;;;;;;1.17;71.12;98516.32;430005;1270;143099;-66
2022/03/29 20:35:11;;;;;;;52.20;33.40;;;;;;;0.92;71.49;98512.23;447542;1269;141592;-68
2022/03/29 20:45:17;;;;;;;54.10;29.00;;;;;;;0.69;72.06;98505.91;447622;1269;142167;-67
2022/03/29 20:55:23;;;;;;;53.30;34.30;;;;;;;0.51;71.76;98495.61;447730;1267;141549;-68
2022/03/29 21:05:30;;;;;;;60.00;36.30;;;;;;;0.33;71.46;98493.23;447573;1269;142766;-67
2022/03/29 21:15:36;;;;;;;77.20;46.40;;;;;;;0.20;71.73;98492.69;446563;1269;143707;-67
2022/03/29 21:25:42;;;;;;;69.50;44.60;;;;;;;0.10;72.22;98489.31;447246;1268;141319;-68
2022/03/29 21:35:48;;;;;;;80.10;47.80;;;;;;;0.03;72.97;98488.38;446621;1270;142292;-72
2022/03/29 21:45:54;;;;;;;93.70;60.20;;;;;;;-0.11;73.47;98489.39;433917;1267;141730;-68
2022/03/29 21:56:01;;;;;;;93.40;58.90;;;;;;;-0.26;73.74;98486.70;431616;1269;142982;-68
2022/03/29 22:06:07;;;;;;;85.80;54.00;;;;;;;-0.48;73.40;98485.09;431914;1269;142829;-71
2022/03/29 22:16:13;;;;;;;92.00;56.40;;;;;;;-0.65;73.26;98489.33;430170;1269;143771;-65
2022/03/29 22:26:19;;;;;;;76.50;46.20;;;;;;;-0.80;73.20;98492.07;431121;1270;144630;-66
2022/03/29 22:36:24;;;;;;;68.60;44.70;;;;;;;-0.91;73.20;98492.64;430166;1270;143246;-67
2022/03/29 22:46:30;;;;;;;73.60;45.50;;;;;;;-1.01;73.37;98490.21;431129;1269;143270;-66
2022/03/29 23:07:00;;;;;;;60.10;40.50;;;;;;;-1.06;74.82;98479.20;446972;1268;143408;-65
2022/03/29 23:17:07;;;;;;;70.60;47.40;;;;;;;-0.90;75.22;98469.40;447820;1269;143183;-65
2022/03/29 23:27:13;;;;;;;69.70;44.10;;;;;;;-0.73;75.45;98470.69;447836;1269;142963;-65
2022/03/29 23:37:19;;;;;;;66.70;43.50;;;;;;;-0.79;74.93;98464.72;447017;1269;144042;-66
2022/03/29 23:47:25;;;;;;;63.10;40.70;;;;;;;-0.59;75.39;98456.45;447691;1269;143497;-66
2022/03/29 23:57:34;;;;;;;62.90;40.90;;;;;;;-0.17;75.66;98451.61;432040;1270;251753;-65
